createdAt,value
2018-05-16T00:00:58.503Z,16.40
2018-05-16T00:03:25.963Z,16.40
2018-05-16T00:05:53.417Z,16.40
2018-05-16T00:08:20.879Z,16.40
2018-05-16T00:10:48.323Z,16.30
2018-05-16T00:13:15.760Z,16.30
2018-05-16T00:15:43.229Z,16.20
2018-05-16T00:18:10.647Z,16.20
2018-05-16T00:20:38.891Z,16.20
2018-05-16T00:23:06.329Z,16.20
2018-05-16T00:25:33.891Z,16.10
2018-05-16T00:28:01.435Z,16.10
2018-05-16T00:30:29.075Z,16.00
2018-05-16T00:32:56.575Z,16.00
2018-05-16T00:35:24.132Z,16.00
2018-05-16T00:37:51.564Z,16.00
2018-05-16T00:40:19.045Z,15.90
2018-05-16T00:42:46.605Z,16.00
2018-05-16T00:45:14.151Z,16.00
2018-05-16T00:47:41.624Z,16.00
2018-05-16T00:50:09.183Z,15.90
2018-05-16T00:52:36.619Z,15.90
2018-05-16T00:55:04.071Z,16.00
2018-05-16T00:57:31.503Z,15.90
2018-05-16T00:59:58.938Z,15.90
2018-05-16T01:02:26.379Z,15.90
2018-05-16T01:04:53.927Z,15.90
2018-05-16T01:07:21.476Z,15.90
2018-05-16T01:09:48.926Z,15.90
2018-05-16T01:12:16.374Z,15.90
2018-05-16T01:14:43.844Z,15.80
2018-05-16T01:17:11.312Z,15.70
2018-05-16T01:19:39.069Z,15.70
2018-05-16T01:22:06.536Z,15.70
2018-05-16T01:24:34.744Z,15.60
2018-05-16T01:27:02.182Z,15.60
2018-05-16T01:29:29.665Z,15.60
2018-05-16T01:31:57.207Z,15.60
2018-05-16T01:34:24.651Z,15.60
2018-05-16T01:36:52.142Z,15.60
2018-05-16T01:39:19.925Z,15.60
2018-05-16T01:41:47.464Z,15.60
2018-05-16T01:44:14.920Z,15.60
2018-05-16T01:46:42.378Z,15.60
2018-05-16T01:49:19.859Z,15.60
2018-05-16T01:51:47.295Z,15.60
2018-05-16T01:54:14.793Z,15.50
2018-05-16T01:56:42.345Z,15.50
2018-05-16T01:59:09.784Z,15.50
2018-05-16T02:01:37.258Z,15.50
2018-05-16T02:04:04.704Z,15.40
2018-05-16T02:06:32.141Z,15.50
2018-05-16T02:08:59.586Z,15.50
2018-05-16T02:11:27.094Z,15.40
2018-05-16T02:13:54.559Z,15.40
2018-05-16T02:16:22.001Z,15.40
2018-05-16T02:18:49.482Z,15.40
2018-05-16T02:21:16.916Z,15.30
2018-05-16T02:23:44.404Z,15.30
2018-05-16T02:26:11.939Z,15.30
2018-05-16T02:28:39.499Z,15.20
2018-05-16T02:31:06.948Z,15.20
2018-05-16T02:33:34.387Z,15.20
2018-05-16T02:36:01.870Z,15.10
2018-05-16T02:38:29.427Z,15.10
2018-05-16T02:40:56.868Z,15.10
2018-05-16T02:43:24.339Z,15.00
2018-05-16T02:45:51.771Z,15.00
2018-05-16T02:48:19.208Z,15.10
2018-05-16T02:50:47.429Z,15.00
2018-05-16T02:53:14.885Z,15.00
2018-05-16T02:55:42.347Z,15.00
2018-05-16T02:58:09.796Z,15.00
2018-05-16T03:00:38.231Z,15.10
2018-05-16T03:03:06.442Z,15.10
2018-05-16T03:05:33.879Z,15.10
2018-05-16T03:08:01.369Z,15.20
2018-05-16T03:10:28.811Z,15.20
2018-05-16T03:12:56.235Z,15.30
2018-05-16T03:15:24.455Z,15.30
2018-05-16T03:17:51.896Z,15.30
2018-05-16T03:20:19.331Z,15.30
2018-05-16T03:22:46.828Z,15.40
2018-05-16T03:25:14.273Z,15.40
2018-05-16T03:27:41.730Z,15.40
2018-05-16T03:30:09.186Z,15.50
2018-05-16T03:32:36.699Z,15.50
2018-05-16T03:35:05.639Z,15.50
2018-05-16T03:37:33.115Z,15.50
2018-05-16T03:40:00.670Z,15.60
2018-05-16T03:42:28.110Z,15.60
2018-05-16T03:44:55.568Z,15.60
2018-05-16T03:47:23.026Z,15.70
2018-05-16T03:49:50.447Z,15.70
2018-05-16T03:52:18.678Z,15.70
2018-05-16T03:54:46.112Z,15.70
2018-05-16T03:57:36.319Z,15.70
2018-05-16T04:00:15.653Z,15.70
2018-05-16T04:02:55.023Z,15.70
2018-05-16T04:05:22.555Z,15.70
2018-05-16T04:07:49.995Z,15.70
2018-05-16T04:10:17.439Z,15.80
2018-05-16T04:12:44.937Z,15.80
2018-05-16T04:15:12.387Z,15.90
2018-05-16T04:17:39.838Z,15.90
2018-05-16T04:20:07.281Z,15.90
2018-05-16T04:22:34.715Z,15.90
2018-05-16T04:25:02.943Z,16.00
2018-05-16T04:27:30.507Z,16.00
2018-05-16T04:29:57.963Z,16.00
2018-05-16T04:32:25.404Z,16.00
2018-05-16T04:34:52.856Z,16.00
2018-05-16T04:37:20.322Z,16.10
2018-05-16T04:39:47.772Z,16.10
2018-05-16T04:42:15.244Z,16.10
2018-05-16T04:44:42.691Z,16.20
2018-05-16T04:47:10.141Z,16.20
2018-05-16T04:49:37.611Z,16.20
2018-05-16T04:52:05.085Z,16.20
2018-05-16T04:54:32.516Z,16.20
2018-05-16T04:56:59.987Z,16.20
2018-05-16T04:59:27.430Z,16.20
2018-05-16T05:01:55.107Z,16.20
2018-05-16T05:04:22.548Z,16.20
2018-05-16T05:06:50.035Z,16.30
2018-05-16T05:09:17.477Z,16.30
2018-05-16T05:11:44.943Z,16.30
2018-05-16T05:14:12.497Z,16.30
2018-05-16T05:16:39.953Z,16.40
2018-05-16T05:19:07.409Z,16.40
2018-05-16T05:21:34.868Z,16.40
2018-05-16T05:24:02.339Z,16.40
2018-05-16T05:26:29.779Z,16.40
2018-05-16T05:28:57.259Z,16.50
2018-05-16T05:31:24.711Z,16.50
2018-05-16T05:33:52.152Z,16.50
2018-05-16T05:36:19.615Z,16.60
2018-05-16T05:38:47.061Z,16.60
2018-05-16T05:41:14.527Z,16.70
2018-05-16T05:43:42.091Z,16.70
2018-05-16T05:46:09.527Z,16.70
2018-05-16T05:48:37.003Z,16.70
2018-05-16T05:51:04.564Z,16.80
2018-05-16T05:53:32.018Z,16.80
2018-05-16T05:55:59.574Z,16.80
2018-05-16T05:58:27.020Z,16.80
2018-05-16T06:00:54.495Z,16.80
2018-05-16T06:03:22.014Z,16.80
2018-05-16T06:05:49.556Z,16.80
2018-05-16T06:08:16.982Z,16.90
2018-05-16T06:10:44.435Z,16.90
2018-05-16T06:13:12.643Z,16.90
2018-05-16T06:15:40.090Z,16.90
2018-05-16T06:18:07.530Z,16.90
2018-05-16T06:20:34.987Z,16.90
2018-05-16T06:23:03.248Z,16.90
2018-05-16T06:25:31.475Z,16.80
2018-05-16T06:27:58.962Z,16.80
2018-05-16T06:30:26.378Z,16.80
2018-05-16T06:32:53.824Z,16.80
2018-05-16T06:35:21.307Z,16.70
2018-05-16T06:37:48.944Z,16.70
2018-05-16T06:40:16.464Z,16.60
2018-05-16T06:42:43.947Z,16.60
2018-05-16T06:45:11.404Z,16.60
2018-05-16T06:47:38.841Z,16.50
2018-05-16T06:50:06.348Z,16.50
2018-05-16T06:52:33.781Z,16.40
2018-05-16T06:55:01.228Z,16.40
2018-05-16T06:57:28.713Z,16.30
2018-05-16T06:59:56.162Z,16.30
2018-05-16T07:02:23.595Z,16.30
2018-05-16T07:04:51.037Z,16.30
2018-05-16T07:07:19.258Z,16.30
2018-05-16T07:09:46.706Z,16.30
2018-05-16T07:12:14.168Z,16.30
2018-05-16T07:14:41.609Z,16.30
2018-05-16T07:17:09.061Z,16.30
2018-05-16T07:19:36.506Z,16.40
2018-05-16T07:22:03.995Z,16.40
2018-05-16T07:24:31.431Z,16.40
2018-05-16T07:26:58.877Z,16.40
2018-05-16T07:29:26.319Z,16.40
2018-05-16T07:31:54.529Z,16.50
2018-05-16T07:34:21.984Z,16.50
2018-05-16T07:36:49.443Z,16.50
2018-05-16T07:39:16.904Z,16.50
2018-05-16T07:41:44.367Z,16.60
2018-05-16T07:44:11.831Z,16.60
2018-05-16T07:46:39.272Z,16.70
2018-05-16T07:49:06.717Z,16.80
2018-05-16T07:51:34.203Z,16.90
2018-05-16T07:54:01.659Z,17.00
2018-05-16T07:56:29.111Z,17.10
2018-05-16T07:58:56.672Z,17.20
2018-05-16T08:01:24.869Z,17.40
2018-05-16T08:03:52.303Z,17.30
2018-05-16T08:06:20.541Z,17.50
2018-05-16T08:08:47.976Z,17.40
2018-05-16T08:11:15.422Z,17.50
2018-05-16T08:13:42.859Z,17.50
2018-05-16T08:16:11.092Z,17.50
2018-05-16T08:18:38.519Z,17.50
2018-05-16T08:21:05.975Z,17.50
2018-05-16T08:23:33.537Z,17.60
2018-05-16T08:26:00.967Z,17.60
2018-05-16T08:28:29.180Z,17.70
2018-05-16T08:30:56.652Z,17.70
2018-05-16T08:33:25.681Z,17.80
2018-05-16T08:35:53.308Z,17.90
2018-05-16T08:38:27.163Z,18.00
2018-05-16T08:40:54.644Z,18.10
2018-05-16T08:43:22.969Z,18.30
2018-05-16T08:45:50.543Z,18.30
2018-05-16T08:48:18.120Z,18.50
2018-05-16T08:50:46.024Z,18.60
2018-05-16T08:53:13.454Z,18.70
2018-05-16T08:55:41.690Z,18.70
2018-05-16T08:58:09.251Z,18.70
2018-05-16T09:00:36.700Z,19.00
2018-05-16T09:03:04.144Z,19.10
2018-05-16T09:05:31.572Z,19.40
2018-05-16T09:07:59.012Z,19.50
2018-05-16T09:10:26.467Z,19.60
2018-05-16T09:12:53.981Z,19.60
2018-05-16T09:15:21.456Z,19.60
2018-05-16T09:17:48.903Z,19.70
2018-05-16T09:20:16.476Z,19.60
2018-05-16T09:22:43.927Z,19.60
2018-05-16T09:25:11.451Z,19.60
2018-05-16T09:27:38.836Z,19.60
2018-05-16T09:30:06.284Z,19.70
2018-05-16T09:32:33.767Z,20.10
2018-05-16T09:35:01.212Z,20.50
2018-05-16T09:37:28.656Z,20.80
2018-05-16T09:39:56.124Z,20.90
2018-05-16T09:42:23.557Z,20.90
2018-05-16T09:44:50.991Z,20.90
2018-05-16T09:47:19.215Z,20.80
2018-05-16T09:49:46.666Z,20.90
2018-05-16T09:52:14.116Z,20.80
2018-05-16T09:54:41.558Z,20.90
2018-05-16T09:57:09.029Z,20.90
2018-05-16T09:59:36.467Z,20.90
2018-05-16T10:02:03.912Z,20.90
2018-05-16T10:04:32.129Z,20.90
2018-05-16T10:06:59.587Z,20.90
2018-05-16T10:09:27.062Z,21.00
2018-05-16T10:11:54.503Z,21.20
2018-05-16T10:14:21.943Z,21.30
2018-05-16T10:16:49.416Z,21.50
2018-05-16T10:19:16.846Z,21.60
2018-05-16T10:21:44.329Z,21.70
2018-05-16T10:24:11.784Z,21.80
2018-05-16T10:26:39.243Z,21.90
2018-05-16T10:29:06.706Z,22.00
2018-05-16T10:31:34.143Z,22.10
2018-05-16T10:34:01.623Z,22.10
2018-05-16T10:36:29.089Z,22.00
2018-05-16T10:38:56.519Z,22.10
2018-05-16T10:41:24.065Z,22.00
2018-05-16T10:43:51.580Z,22.00
2018-05-16T10:46:19.024Z,22.00
2018-05-16T10:48:46.564Z,21.90
2018-05-16T10:51:14.027Z,21.90
2018-05-16T10:53:41.476Z,21.90
2018-05-16T10:56:08.923Z,21.90
2018-05-16T10:58:36.418Z,22.00
2018-05-16T11:01:03.836Z,22.10
2018-05-16T11:03:31.314Z,22.20
2018-05-16T11:05:58.756Z,22.30
2018-05-16T11:08:26.200Z,22.40
2018-05-16T11:10:53.645Z,22.50
2018-05-16T11:13:21.088Z,22.60
2018-05-16T11:15:49.299Z,22.80
2018-05-16T11:18:16.747Z,22.80
2018-05-16T11:20:44.181Z,22.80
2018-05-16T11:23:12.391Z,22.70
2018-05-16T11:25:39.840Z,22.70
2018-05-16T11:28:07.305Z,22.70
2018-05-16T11:30:34.782Z,22.60
2018-05-16T11:33:02.231Z,22.50
2018-05-16T11:35:29.709Z,22.50
2018-05-16T11:37:57.160Z,22.60
2018-05-16T11:40:24.607Z,22.60
2018-05-16T11:42:52.083Z,22.60
2018-05-16T11:45:19.531Z,22.70
2018-05-16T11:47:46.985Z,22.90
2018-05-16T11:50:14.537Z,22.80
2018-05-16T11:52:41.967Z,22.70
2018-05-16T11:55:09.407Z,22.80
2018-05-16T11:57:36.844Z,22.90
2018-05-16T12:00:05.055Z,23.30
2018-05-16T12:02:32.500Z,23.30
2018-05-16T12:04:59.949Z,23.30
2018-05-16T12:07:28.139Z,23.60
2018-05-16T12:09:55.579Z,23.60
2018-05-16T12:12:23.817Z,23.70
2018-05-16T12:14:51.260Z,23.70
2018-05-16T12:17:18.647Z,23.70
2018-05-16T12:19:46.099Z,23.70
2018-05-16T12:22:13.537Z,23.70
2018-05-16T12:24:40.979Z,23.80
2018-05-16T12:27:08.440Z,23.60
2018-05-16T12:29:35.896Z,23.50
2018-05-16T12:32:03.345Z,23.50
2018-05-16T12:34:30.902Z,23.50
2018-05-16T12:36:58.316Z,23.60
2018-05-16T12:39:26.583Z,23.50
2018-05-16T12:41:54.021Z,23.50
2018-05-16T12:44:21.967Z,23.50
2018-05-16T12:46:49.897Z,23.40
2018-05-16T12:49:18.235Z,23.20
2018-05-16T12:51:45.585Z,23.20
2018-05-16T12:54:13.089Z,23.20
2018-05-16T12:56:41.294Z,23.10
2018-05-16T12:59:08.734Z,23.10
2018-05-16T13:01:36.232Z,22.90
2018-05-16T13:04:04.496Z,23.00
2018-05-16T13:06:31.943Z,22.90
2018-05-16T13:08:59.410Z,23.00
2018-05-16T13:11:26.865Z,23.10
2018-05-16T13:13:54.299Z,23.20
2018-05-16T13:16:21.772Z,23.30
2018-05-16T13:18:49.220Z,23.50
2018-05-16T13:21:16.656Z,23.50
2018-05-16T13:23:44.847Z,23.50
2018-05-16T13:26:12.300Z,23.50
2018-05-16T13:28:39.798Z,23.50
2018-05-16T13:31:08.016Z,23.50
2018-05-16T13:33:35.496Z,23.50
2018-05-16T13:36:02.931Z,23.50
2018-05-16T13:38:30.378Z,23.50
2018-05-16T13:40:57.828Z,23.50
2018-05-16T13:43:25.266Z,23.40
2018-05-16T13:45:52.704Z,23.50
2018-05-16T13:48:20.907Z,23.50
2018-05-16T13:50:48.359Z,23.50
2018-05-16T13:53:15.801Z,23.50
2018-05-16T13:55:44.016Z,23.40
2018-05-16T13:58:11.464Z,23.30
2018-05-16T14:00:38.917Z,23.00
2018-05-16T14:03:06.380Z,23.00
2018-05-16T14:05:33.871Z,23.00
2018-05-16T14:08:01.314Z,22.90
2018-05-16T14:10:28.755Z,22.80
2018-05-16T14:12:56.189Z,22.90
2018-05-16T14:15:23.753Z,23.00
2018-05-16T14:17:51.142Z,23.40
2018-05-16T14:20:18.587Z,23.50
2018-05-16T14:22:46.031Z,23.60
2018-05-16T14:25:13.507Z,23.80
2018-05-16T14:27:40.966Z,23.70
2018-05-16T14:30:08.461Z,23.80
2018-05-16T14:32:35.988Z,23.90
2018-05-16T14:35:03.451Z,23.80
2018-05-16T14:37:30.905Z,23.60
2018-05-16T14:39:58.355Z,23.60
2018-05-16T14:42:25.927Z,23.60
2018-05-16T14:44:53.362Z,23.80
2018-05-16T14:47:20.836Z,23.60
2018-05-16T14:49:48.291Z,23.20
2018-05-16T14:52:15.726Z,23.00
2018-05-16T14:54:43.254Z,23.10
2018-05-16T14:57:10.639Z,23.50
2018-05-16T14:59:38.091Z,23.70
2018-05-16T15:02:05.553Z,24.00
2018-05-16T15:04:33.015Z,23.90
2018-05-16T15:07:00.453Z,23.70
2018-05-16T15:09:27.891Z,23.60
2018-05-16T15:11:56.098Z,22.90
2018-05-16T15:14:23.559Z,22.90
2018-05-16T15:16:51.016Z,22.60
2018-05-16T15:19:18.474Z,22.80
2018-05-16T15:21:45.920Z,22.80
2018-05-16T15:24:13.371Z,23.00
2018-05-16T15:26:40.867Z,23.30
2018-05-16T15:29:08.329Z,23.50
2018-05-16T15:31:35.835Z,23.60
2018-05-16T15:34:04.038Z,23.70
2018-05-16T15:36:31.495Z,23.70
2018-05-16T15:38:58.993Z,23.60
2018-05-16T15:41:26.444Z,23.60
2018-05-16T15:43:53.919Z,23.70
2018-05-16T15:46:21.355Z,24.10
2018-05-16T15:48:48.783Z,24.40
2018-05-16T15:51:16.223Z,24.60
2018-05-16T15:53:43.678Z,24.40
2018-05-16T15:56:11.116Z,24.00
2018-05-16T15:58:39.385Z,24.10
2018-05-16T16:01:06.899Z,24.10
2018-05-16T16:03:34.355Z,24.20
2018-05-16T16:06:02.564Z,24.00
2018-05-16T16:08:30.015Z,24.00
2018-05-16T16:10:57.455Z,23.90
2018-05-16T16:13:24.888Z,24.00
2018-05-16T16:15:53.128Z,24.10
2018-05-16T16:18:20.572Z,24.20
2018-05-16T16:20:48.041Z,24.00
2018-05-16T16:23:15.507Z,23.90
2018-05-16T16:25:43.184Z,23.80
2018-05-16T16:28:10.757Z,24.10
2018-05-16T16:30:38.955Z,22.50
2018-05-16T16:33:06.416Z,22.50
2018-05-16T16:35:33.855Z,22.20
2018-05-16T16:38:02.064Z,22.10
2018-05-16T16:40:29.506Z,22.10
2018-05-16T16:42:57.082Z,22.20
2018-05-16T16:45:24.526Z,21.80
2018-05-16T16:47:52.774Z,20.60
2018-05-16T16:50:20.229Z,20.50
2018-05-16T16:52:47.706Z,20.10
2018-05-16T16:55:15.137Z,19.70
2018-05-16T16:57:42.611Z,19.40
2018-05-16T17:00:10.104Z,19.20
2018-05-16T17:02:37.512Z,19.10
2018-05-16T17:05:04.952Z,18.90
2018-05-16T17:07:32.422Z,18.70
2018-05-16T17:09:59.967Z,18.60
2018-05-16T17:12:27.398Z,18.40
2018-05-16T17:14:54.912Z,18.30
2018-05-16T17:17:22.358Z,18.10
2018-05-16T17:19:50.559Z,17.80
2018-05-16T17:22:18.022Z,17.80
2018-05-16T17:24:45.470Z,17.90
2018-05-16T17:27:12.951Z,17.80
2018-05-16T17:29:40.387Z,17.70
2018-05-16T17:32:07.832Z,17.60
2018-05-16T17:34:35.303Z,17.50
2018-05-16T17:37:02.741Z,17.40
2018-05-16T17:39:30.220Z,17.30
2018-05-16T17:41:57.675Z,17.30
2018-05-16T17:44:25.122Z,17.30
2018-05-16T17:46:52.552Z,17.20
2018-05-16T17:49:20.039Z,17.20
2018-05-16T17:51:47.815Z,17.20
2018-05-16T17:54:15.239Z,17.20
2018-05-16T17:56:42.710Z,17.20
2018-05-16T17:59:10.181Z,17.10
2018-05-16T18:01:37.626Z,17.00
2018-05-16T18:04:05.089Z,17.00
2018-05-16T18:06:32.637Z,16.90
2018-05-16T18:09:00.141Z,16.70
2018-05-16T18:11:28.344Z,16.60
2018-05-16T18:14:07.755Z,16.60
2018-05-16T18:16:59.951Z,16.60
2018-05-16T18:19:27.323Z,16.50
2018-05-16T18:21:55.571Z,16.50
2018-05-16T18:24:23.016Z,16.50
2018-05-16T18:26:50.447Z,16.50
2018-05-16T18:29:17.879Z,16.40
2018-05-16T18:31:45.316Z,16.30
2018-05-16T18:34:12.871Z,16.20
2018-05-16T18:36:40.301Z,16.20
2018-05-16T18:39:07.742Z,16.20
2018-05-16T18:41:35.193Z,16.00
2018-05-16T18:44:03.418Z,15.80
2018-05-16T18:46:30.894Z,15.80
2018-05-16T18:48:58.387Z,15.60
2018-05-16T18:51:25.947Z,15.60
2018-05-16T18:53:54.163Z,15.50
2018-05-16T18:56:21.671Z,15.50
2018-05-16T18:58:49.231Z,15.40
2018-05-16T19:01:16.671Z,15.40
2018-05-16T19:03:44.107Z,15.30
2018-05-16T19:06:11.600Z,15.30
2018-05-16T19:08:39.175Z,15.10
2018-05-16T19:11:06.633Z,15.10
2018-05-16T19:13:34.113Z,15.00
2018-05-16T19:16:01.660Z,14.90
2018-05-16T19:18:29.056Z,14.90
2018-05-16T19:20:56.483Z,14.90
2018-05-16T19:23:23.925Z,14.80
2018-05-16T19:25:51.375Z,14.80
2018-05-16T19:28:18.818Z,14.80
2018-05-16T19:30:46.267Z,14.80
2018-05-16T19:33:13.727Z,14.70
2018-05-16T19:35:41.215Z,14.70
2018-05-16T19:38:08.647Z,14.60
2018-05-16T19:40:36.213Z,14.50
2018-05-16T19:43:03.691Z,14.50
2018-05-16T19:45:31.131Z,14.40
2018-05-16T19:47:58.576Z,14.40
2018-05-16T19:50:26.023Z,14.30
2018-05-16T19:52:54.396Z,14.20
2018-05-16T19:55:21.780Z,14.20
2018-05-16T19:57:49.256Z,14.10
2018-05-16T20:00:16.701Z,14.00
2018-05-16T20:02:44.134Z,14.00
2018-05-16T20:05:12.345Z,13.80
2018-05-16T20:07:39.798Z,13.80
2018-05-16T20:10:07.259Z,13.80
2018-05-16T20:12:34.695Z,13.70
2018-05-16T20:15:02.152Z,13.70
2018-05-16T20:17:29.611Z,13.60
2018-05-16T20:19:57.069Z,13.60
2018-05-16T20:22:25.263Z,13.50
2018-05-16T20:24:52.699Z,13.50
2018-05-16T20:27:20.131Z,13.40
2018-05-16T20:29:48.383Z,13.40
2018-05-16T20:32:15.853Z,13.30
2018-05-16T20:34:43.292Z,13.30
2018-05-16T20:37:10.836Z,13.30
2018-05-16T20:39:38.279Z,13.20
2018-05-16T20:42:05.735Z,13.20
2018-05-16T20:44:33.175Z,13.10
2018-05-16T20:47:00.616Z,13.00
2018-05-16T20:49:28.831Z,13.00
2018-05-16T20:51:56.246Z,13.00
2018-05-16T20:54:24.462Z,12.90
2018-05-16T20:56:51.911Z,12.90
2018-05-16T20:59:19.396Z,12.90
2018-05-16T21:01:46.831Z,12.90
2018-05-16T21:04:14.262Z,12.80
2018-05-16T21:06:41.741Z,12.80
2018-05-16T21:09:09.207Z,12.80
2018-05-16T21:11:36.661Z,12.80
2018-05-16T21:14:04.123Z,12.70
2018-05-16T21:16:31.564Z,12.70
2018-05-16T21:18:59.015Z,12.70
2018-05-16T21:21:26.452Z,12.70
2018-05-16T21:23:54.655Z,12.70
2018-05-16T21:26:22.222Z,12.70
2018-05-16T21:28:49.811Z,12.60
2018-05-16T21:31:17.247Z,12.60
2018-05-16T21:33:44.679Z,12.60
2018-05-16T21:36:12.119Z,12.50
2018-05-16T21:38:40.330Z,12.40
2018-05-16T21:41:07.778Z,12.40
2018-05-16T21:43:35.248Z,12.40
2018-05-16T21:46:02.684Z,12.30
2018-05-16T21:48:30.171Z,12.30
2018-05-16T21:50:57.615Z,12.30
2018-05-16T21:53:25.058Z,12.20
2018-05-16T21:55:52.501Z,12.20
2018-05-16T21:58:20.044Z,12.20
2018-05-16T22:00:47.485Z,12.20
2018-05-16T22:03:14.996Z,12.10
2018-05-16T22:05:42.418Z,12.10
2018-05-16T22:08:10.636Z,12.10
2018-05-16T22:10:38.067Z,12.10
2018-05-16T22:13:05.532Z,12.10
2018-05-16T22:15:33.792Z,12.10
2018-05-16T22:18:01.224Z,12.10
2018-05-16T22:20:28.745Z,12.20
2018-05-16T22:22:56.207Z,12.20
2018-05-16T22:25:23.639Z,12.20
2018-05-16T22:27:51.073Z,12.20
2018-05-16T22:30:18.799Z,12.10
2018-05-16T22:32:51.928Z,12.10
2018-05-16T22:35:25.817Z,12.20
2018-05-16T22:37:58.981Z,12.10
2018-05-16T22:40:32.231Z,12.10
2018-05-16T22:42:59.195Z,12.10
2018-05-16T22:45:32.267Z,12.10
2018-05-16T22:47:59.698Z,12.20
2018-05-16T22:50:27.905Z,12.20
2018-05-16T22:52:55.383Z,12.20
2018-05-16T22:55:22.820Z,12.20
2018-05-16T22:57:50.288Z,12.10
2018-05-16T23:00:20.432Z,12.00
2018-05-16T23:02:47.856Z,12.00
2018-05-16T23:05:15.311Z,12.00
2018-05-16T23:07:42.749Z,12.00
2018-05-16T23:10:10.954Z,11.90
2018-05-16T23:12:38.419Z,11.90
2018-05-16T23:15:05.873Z,11.80
2018-05-16T23:17:33.311Z,11.80
2018-05-16T23:20:00.750Z,11.70
2018-05-16T23:22:28.941Z,11.70
2018-05-16T23:24:56.403Z,11.60
2018-05-16T23:27:23.847Z,11.60
2018-05-16T23:29:52.046Z,11.60
2018-05-16T23:32:19.515Z,11.50
2018-05-16T23:34:46.973Z,11.60
2018-05-16T23:37:14.418Z,11.50
2018-05-16T23:39:41.875Z,11.50
2018-05-16T23:42:09.352Z,11.50
2018-05-16T23:44:36.804Z,11.40
2018-05-16T23:47:04.247Z,11.40
2018-05-16T23:49:31.691Z,11.40
2018-05-16T23:51:59.115Z,11.40
2018-05-16T23:54:26.566Z,11.40
2018-05-16T23:56:54.766Z,11.30
2018-05-16T23:59:22.975Z,11.30
